sensor_id;sensor_type;location;lat;lon;timestamp;P1;P2;P0
73146;PMS7003;61345;48.922;2.244;2022-07-17T00:02:11;2.75;2.00;2.00
73146;PMS7003;61345;48.922;2.244;2022-07-17T00:04:38;1.75;1.75;1.75
73146;PMS7003;61345;48.922;2.244;2022-07-17T00:07:03;2.75;2.75;2.00
73146;PMS7003;61345;48.922;2.244;2022-07-17T00:09:28;3.00;2.75;2.50
73146;PMS7003;61345;48.922;2.244;2022-07-17T00:11:54;3.00;3.00;2.00
73146;PMS7003;61345;48.922;2.244;2022-07-17T00:14:19;4.00;2.75;2.00
73146;PMS7003;61345;48.922;2.244;2022-07-17T00:16:44;4.25;1.75;1.75
73146;PMS7003;61345;48.922;2.244;2022-07-17T00:19:10;2.00;1.75;1.50
73146;PMS7003;61345;48.922;2.244;2022-07-17T00:21:35;2.75;2.75;1.75
73146;PMS7003;61345;48.922;2.244;2022-07-17T00:24:01;1.75;1.75;1.75
73146;PMS7003;61345;48.922;2.244;2022-07-17T00:26:26;2.00;2.00;2.00
73146;PMS7003;61345;48.922;2.244;2022-07-17T00:28:51;4.00;3.75;3.00
73146;PMS7003;61345;48.922;2.244;2022-07-17T00:31:17;1.75;1.75;1.75
73146;PMS7003;61345;48.922;2.244;2022-07-17T00:33:42;3.00;3.00;2.75
73146;PMS7003;61345;48.922;2.244;2022-07-17T00:36:07;3.33;3.33;2.67
73146;PMS7003;61345;48.922;2.244;2022-07-17T00:38:33;3.25;1.75;1.75
73146;PMS7003;61345;48.922;2.244;2022-07-17T00:40:59;2.25;2.25;2.00
73146;PMS7003;61345;48.922;2.244;2022-07-17T00:43:24;3.25;1.75;1.75
73146;PMS7003;61345;48.922;2.244;2022-07-17T00:45:54;2.75;2.50;1.75
73146;PMS7003;61345;48.922;2.244;2022-07-17T00:48:23;2.75;2.75;1.75
73146;PMS7003;61345;48.922;2.244;2022-07-17T00:50:48;3.50;2.50;1.75
73146;PMS7003;61345;48.922;2.244;2022-07-17T00:53:14;2.25;1.75;1.50
73146;PMS7003;61345;48.922;2.244;2022-07-17T00:55:40;2.50;2.50;1.50
73146;PMS7003;61345;48.922;2.244;2022-07-17T00:58:06;2.75;2.75;1.75
73146;PMS7003;61345;48.922;2.244;2022-07-17T01:00:32;2.25;2.25;1.75
73146;PMS7003;61345;48.922;2.244;2022-07-17T01:02:58;2.75;2.75;2.00
73146;PMS7003;61345;48.922;2.244;2022-07-17T01:05:23;4.50;2.25;1.75
73146;PMS7003;61345;48.922;2.244;2022-07-17T01:07:49;2.00;2.00;2.00
73146;PMS7003;61345;48.922;2.244;2022-07-17T01:10:15;5.75;2.25;2.25
73146;PMS7003;61345;48.922;2.244;2022-07-17T01:12:41;2.75;2.00;1.50
73146;PMS7003;61345;48.922;2.244;2022-07-17T01:15:07;3.50;1.50;1.50
73146;PMS7003;61345;48.922;2.244;2022-07-17T01:17:34;4.00;2.00;2.00
73146;PMS7003;61345;48.922;2.244;2022-07-17T01:20:00;3.00;2.50;2.50
73146;PMS7003;61345;48.922;2.244;2022-07-17T01:22:26;3.25;1.50;1.50
73146;PMS7003;61345;48.922;2.244;2022-07-17T01:24:51;2.50;2.50;1.50
73146;PMS7003;61345;48.922;2.244;2022-07-17T01:27:17;2.75;2.50;2.50
73146;PMS7003;61345;48.922;2.244;2022-07-17T01:29:42;2.25;2.25;1.25
73146;PMS7003;61345;48.922;2.244;2022-07-17T01:32:07;3.00;3.00;2.00
73146;PMS7003;61345;48.922;2.244;2022-07-17T01:34:33;2.50;2.50;2.00
73146;PMS7003;61345;48.922;2.244;2022-07-17T01:36:58;2.25;2.00;2.00
73146;PMS7003;61345;48.922;2.244;2022-07-17T01:39:23;4.00;3.25;2.50
73146;PMS7003;61345;48.922;2.244;2022-07-17T01:42:07;4.00;2.25;2.00
73146;PMS7003;61345;48.922;2.244;2022-07-17T01:44:33;2.25;2.25;1.50
73146;PMS7003;61345;48.922;2.244;2022-07-17T01:46:59;4.00;3.25;2.75
73146;PMS7003;61345;48.922;2.244;2022-07-17T01:49:24;2.00;2.00;2.00
73146;PMS7003;61345;48.922;2.244;2022-07-17T01:51:49;3.50;3.00;2.00
73146;PMS7003;61345;48.922;2.244;2022-07-17T01:54:15;1.75;1.75;1.75
73146;PMS7003;61345;48.922;2.244;2022-07-17T01:56:40;2.75;2.75;2.00
73146;PMS7003;61345;48.922;2.244;2022-07-17T01:59:06;2.00;2.00;2.00
73146;PMS7003;61345;48.922;2.244;2022-07-17T02:01:31;5.25;3.00;2.00
73146;PMS7003;61345;48.922;2.244;2022-07-17T02:03:56;5.00;2.00;2.00
73146;PMS7003;61345;48.922;2.244;2022-07-17T02:06:22;3.00;3.00;2.25
73146;PMS7003;61345;48.922;2.244;2022-07-17T02:08:47;3.00;3.00;2.00
73146;PMS7003;61345;48.922;2.244;2022-07-17T02:11:15;5.00;3.00;3.00
73146;PMS7003;61345;48.922;2.244;2022-07-17T02:13:41;3.00;3.00;2.00
73146;PMS7003;61345;48.922;2.244;2022-07-17T02:16:07;2.75;2.25;2.00
73146;PMS7003;61345;48.922;2.244;2022-07-17T02:18:32;3.00;3.00;2.00
73146;PMS7003;61345;48.922;2.244;2022-07-17T02:20:57;1.50;1.50;1.50
73146;PMS7003;61345;48.922;2.244;2022-07-17T02:23:23;3.00;3.00;2.00
73146;PMS7003;61345;48.922;2.244;2022-07-17T02:25:48;4.00;3.00;2.00
73146;PMS7003;61345;48.922;2.244;2022-07-17T02:28:13;3.25;2.25;2.00
73146;PMS7003;61345;48.922;2.244;2022-07-17T02:30:39;3.00;3.00;2.00
73146;PMS7003;61345;48.922;2.244;2022-07-17T02:33:04;3.75;2.25;2.00
73146;PMS7003;61345;48.922;2.244;2022-07-17T02:35:29;2.00;2.00;2.00
73146;PMS7003;61345;48.922;2.244;2022-07-17T02:37:56;3.75;3.00;2.25
73146;PMS7003;61345;48.922;2.244;2022-07-17T02:40:21;2.00;2.00;2.00
73146;PMS7003;61345;48.922;2.244;2022-07-17T02:42:47;4.00;4.00;3.25
73146;PMS7003;61345;48.922;2.244;2022-07-17T02:45:12;6.00;4.00;3.50
73146;PMS7003;61345;48.922;2.244;2022-07-17T02:47:37;4.00;4.00;3.00
73146;PMS7003;61345;48.922;2.244;2022-07-17T02:50:04;3.25;3.25;2.75
73146;PMS7003;61345;48.922;2.244;2022-07-17T02:52:30;2.50;2.00;2.00
73146;PMS7003;61345;48.922;2.244;2022-07-17T02:54:56;4.00;3.00;2.00
73146;PMS7003;61345;48.922;2.244;2022-07-17T02:57:21;5.00;5.00;4.00
73146;PMS7003;61345;48.922;2.244;2022-07-17T02:59:46;5.75;3.75;3.25
73146;PMS7003;61345;48.922;2.244;2022-07-17T03:02:12;5.25;5.00;4.00
73146;PMS7003;61345;48.922;2.244;2022-07-17T03:04:38;5.00;5.00;4.00
73146;PMS7003;61345;48.922;2.244;2022-07-17T03:07:03;9.00;5.75;5.00
73146;PMS7003;61345;48.922;2.244;2022-07-17T03:09:28;10.00;8.25;6.75
73146;PMS7003;61345;48.922;2.244;2022-07-17T03:11:54;14.25;11.00;8.00
73146;PMS7003;61345;48.922;2.244;2022-07-17T03:14:19;12.00;10.25;8.75
73146;PMS7003;61345;48.922;2.244;2022-07-17T03:16:44;13.00;11.00;9.00
73146;PMS7003;61345;48.922;2.244;2022-07-17T03:19:10;12.50;11.50;8.75
73146;PMS7003;61345;48.922;2.244;2022-07-17T03:21:35;17.25;14.00;10.00
73146;PMS7003;61345;48.922;2.244;2022-07-17T03:24:01;19.50;15.75;12.25
73146;PMS7003;61345;48.922;2.244;2022-07-17T03:26:26;23.25;16.75;13.00
73146;PMS7003;61345;48.922;2.244;2022-07-17T03:28:51;20.00;17.75;12.00
73146;PMS7003;61345;48.922;2.244;2022-07-17T03:31:17;20.00;17.25;13.25
73146;PMS7003;61345;48.922;2.244;2022-07-17T03:33:42;20.50;17.75;13.25
73146;PMS7003;61345;48.922;2.244;2022-07-17T03:36:07;19.25;18.75;13.00
73146;PMS7003;61345;48.922;2.244;2022-07-17T03:38:33;20.50;16.25;12.25
73146;PMS7003;61345;48.922;2.244;2022-07-17T03:40:59;23.50;18.25;12.00
73146;PMS7003;61345;48.922;2.244;2022-07-17T03:43:24;19.25;16.25;12.00
73146;PMS7003;61345;48.922;2.244;2022-07-17T03:45:49;20.00;14.25;9.00
73146;PMS7003;61345;48.922;2.244;2022-07-17T03:48:15;18.00;14.00;11.00
73146;PMS7003;61345;48.922;2.244;2022-07-17T03:50:40;13.50;11.00;9.00
73146;PMS7003;61345;48.922;2.244;2022-07-17T03:53:06;18.25;13.25;9.00
73146;PMS7003;61345;48.922;2.244;2022-07-17T03:55:31;12.75;10.50;7.25
73146;PMS7003;61345;48.922;2.244;2022-07-17T03:57:56;18.00;13.00;8.50
73146;PMS7003;61345;48.922;2.244;2022-07-17T04:00:22;13.75;11.50;8.25
73146;PMS7003;61345;48.922;2.244;2022-07-17T04:02:47;13.25;10.75;8.00
73146;PMS7003;61345;48.922;2.244;2022-07-17T04:05:12;11.00;7.50;5.50
73146;PMS7003;61345;48.922;2.244;2022-07-17T04:07:38;8.25;5.75;5.00
73146;PMS7003;61345;48.922;2.244;2022-07-17T04:10:04;8.50;5.75;4.75
73146;PMS7003;61345;48.922;2.244;2022-07-17T04:12:30;6.75;5.50;4.75
73146;PMS7003;61345;48.922;2.244;2022-07-17T04:14:56;5.75;4.00;3.25
73146;PMS7003;61345;48.922;2.244;2022-07-17T04:17:22;5.00;5.00;4.75
73146;PMS7003;61345;48.922;2.244;2022-07-17T04:19:48;4.75;4.00;3.00
73146;PMS7003;61345;48.922;2.244;2022-07-17T04:22:14;4.75;4.50;3.50
73146;PMS7003;61345;48.922;2.244;2022-07-17T04:24:39;3.00;3.00;2.25
73146;PMS7003;61345;48.922;2.244;2022-07-17T04:27:05;6.00;3.00;2.75
73146;PMS7003;61345;48.922;2.244;2022-07-17T04:29:30;3.00;3.00;3.00
73146;PMS7003;61345;48.922;2.244;2022-07-17T04:31:56;3.50;3.00;2.25
73146;PMS7003;61345;48.922;2.244;2022-07-17T04:34:21;3.75;3.75;3.00
73146;PMS7003;61345;48.922;2.244;2022-07-17T04:36:47;5.00;3.00;2.00
73146;PMS7003;61345;48.922;2.244;2022-07-17T04:39:12;3.00;2.75;2.00
73146;PMS7003;61345;48.922;2.244;2022-07-17T04:41:37;2.75;2.00;2.00
73146;PMS7003;61345;48.922;2.244;2022-07-17T04:44:03;2.00;2.00;2.00
73146;PMS7003;61345;48.922;2.244;2022-07-17T04:46:28;2.75;2.75;2.00
73146;PMS7003;61345;48.922;2.244;2022-07-17T04:48:54;4.00;2.25;2.00
73146;PMS7003;61345;48.922;2.244;2022-07-17T04:51:19;3.75;2.00;2.00
73146;PMS7003;61345;48.922;2.244;2022-07-17T04:53:44;3.00;2.00;2.00
73146;PMS7003;61345;48.922;2.244;2022-07-17T04:56:10;1.50;1.50;1.00
73146;PMS7003;61345;48.922;2.244;2022-07-17T04:58:35;3.50;2.25;2.00
73146;PMS7003;61345;48.922;2.244;2022-07-17T05:01:00;2.00;2.00;1.75
73146;PMS7003;61345;48.922;2.244;2022-07-17T05:03:26;1.25;1.25;1.00
73146;PMS7003;61345;48.922;2.244;2022-07-17T05:05:51;3.25;2.00;2.00
73146;PMS7003;61345;48.922;2.244;2022-07-17T05:08:16;5.00;3.00;2.00
73146;PMS7003;61345;48.922;2.244;2022-07-17T05:10:43;2.50;2.25;2.00
73146;PMS7003;61345;48.922;2.244;2022-07-17T05:13:09;3.00;2.25;2.00
73146;PMS7003;61345;48.922;2.244;2022-07-17T05:15:34;2.00;2.00;1.25
73146;PMS7003;61345;48.922;2.244;2022-07-17T05:17:59;2.00;2.00;1.75
73146;PMS7003;61345;48.922;2.244;2022-07-17T05:20:25;2.50;2.50;2.00
73146;PMS7003;61345;48.922;2.244;2022-07-17T05:22:50;4.75;2.75;2.00
73146;PMS7003;61345;48.922;2.244;2022-07-17T05:25:16;2.25;2.00;1.00
73146;PMS7003;61345;48.922;2.244;2022-07-17T05:27:41;6.00;2.75;2.00
73146;PMS7003;61345;48.922;2.244;2022-07-17T05:30:07;3.75;3.00;3.00
73146;PMS7003;61345;48.922;2.244;2022-07-17T05:32:32;2.50;2.50;2.00
73146;PMS7003;61345;48.922;2.244;2022-07-17T05:34:58;5.00;2.00;2.00
73146;PMS7003;61345;48.922;2.244;2022-07-17T05:37:23;2.00;2.00;2.00
73146;PMS7003;61345;48.922;2.244;2022-07-17T05:39:49;2.00;2.00;2.00
73146;PMS7003;61345;48.922;2.244;2022-07-17T05:42:14;2.75;2.75;2.50
73146;PMS7003;61345;48.922;2.244;2022-07-17T05:44:39;2.50;2.50;2.00
73146;PMS7003;61345;48.922;2.244;2022-07-17T05:47:05;3.00;3.00;2.00
73146;PMS7003;61345;48.922;2.244;2022-07-17T05:49:30;2.75;2.00;2.00
73146;PMS7003;61345;48.922;2.244;2022-07-17T05:51:55;3.25;3.00;2.25
73146;PMS7003;61345;48.922;2.244;2022-07-17T05:54:21;2.00;2.00;1.25
73146;PMS7003;61345;48.922;2.244;2022-07-17T05:56:46;5.25;3.00;3.00
73146;PMS7003;61345;48.922;2.244;2022-07-17T05:59:11;4.00;3.00;2.00
73146;PMS7003;61345;48.922;2.244;2022-07-17T06:01:37;7.00;3.50;3.00
73146;PMS7003;61345;48.922;2.244;2022-07-17T06:04:02;3.25;3.00;2.00
73146;PMS7003;61345;48.922;2.244;2022-07-17T06:06:27;4.00;3.00;1.50
73146;PMS7003;61345;48.922;2.244;2022-07-17T06:08:53;3.00;3.00;2.00
73146;PMS7003;61345;48.922;2.244;2022-07-17T06:11:18;2.25;1.00;1.00
73146;PMS7003;61345;48.922;2.244;2022-07-17T06:13:43;3.00;3.00;2.25
73146;PMS7003;61345;48.922;2.244;2022-07-17T06:16:09;3.00;2.50;2.00
73146;PMS7003;61345;48.922;2.244;2022-07-17T06:18:34;4.00;4.00;2.00
73146;PMS7003;61345;48.922;2.244;2022-07-17T06:20:59;3.00;3.00;3.00
73146;PMS7003;61345;48.922;2.244;2022-07-17T06:23:25;3.00;3.00;3.00
73146;PMS7003;61345;48.922;2.244;2022-07-17T06:25:50;3.25;2.00;2.00
73146;PMS7003;61345;48.922;2.244;2022-07-17T06:28:15;3.00;3.00;2.25
73146;PMS7003;61345;48.922;2.244;2022-07-17T06:30:41;3.00;3.00;2.00
73146;PMS7003;61345;48.922;2.244;2022-07-17T06:33:06;2.50;2.25;2.25
73146;PMS7003;61345;48.922;2.244;2022-07-17T06:35:31;5.00;2.00;2.00
73146;PMS7003;61345;48.922;2.244;2022-07-17T06:37:59;3.00;3.00;2.50
73146;PMS7003;61345;48.922;2.244;2022-07-17T06:40:24;2.50;2.50;2.00
73146;PMS7003;61345;48.922;2.244;2022-07-17T06:42:49;3.00;2.00;2.00
73146;PMS7003;61345;48.922;2.244;2022-07-17T06:45:15;2.75;2.75;2.00
73146;PMS7003;61345;48.922;2.244;2022-07-17T06:47:40;3.00;3.00;2.00
73146;PMS7003;61345;48.922;2.244;2022-07-17T06:50:06;2.50;2.50;2.00
73146;PMS7003;61345;48.922;2.244;2022-07-17T06:52:31;4.50;2.00;2.00
73146;PMS7003;61345;48.922;2.244;2022-07-17T06:54:57;2.75;2.75;2.00
73146;PMS7003;61345;48.922;2.244;2022-07-17T06:57:22;3.75;3.75;3.00
73146;PMS7003;61345;48.922;2.244;2022-07-17T06:59:48;2.00;2.00;2.00
73146;PMS7003;61345;48.922;2.244;2022-07-17T07:02:13;2.00;2.00;1.75
73146;PMS7003;61345;48.922;2.244;2022-07-17T07:04:38;4.50;3.00;2.50
73146;PMS7003;61345;48.922;2.244;2022-07-17T07:07:04;3.75;3.75;3.00
73146;PMS7003;61345;48.922;2.244;2022-07-17T07:09:29;3.00;2.00;2.00
73146;PMS7003;61345;48.922;2.244;2022-07-17T07:11:55;3.50;3.00;2.25
73146;PMS7003;61345;48.922;2.244;2022-07-17T07:14:20;2.25;2.25;2.00
73146;PMS7003;61345;48.922;2.244;2022-07-17T07:16:46;2.75;2.00;2.00
73146;PMS7003;61345;48.922;2.244;2022-07-17T07:19:11;3.00;2.00;1.75
73146;PMS7003;61345;48.922;2.244;2022-07-17T07:21:36;2.00;2.00;2.00
73146;PMS7003;61345;48.922;2.244;2022-07-17T07:24:03;3.00;3.00;2.25
73146;PMS7003;61345;48.922;2.244;2022-07-17T07:26:28;2.75;2.25;2.00
73146;PMS7003;61345;48.922;2.244;2022-07-17T07:28:54;2.75;2.00;2.00
73146;PMS7003;61345;48.922;2.244;2022-07-17T07:31:20;3.25;2.00;1.50
73146;PMS7003;61345;48.922;2.244;2022-07-17T07:33:45;2.00;2.00;2.00
73146;PMS7003;61345;48.922;2.244;2022-07-17T07:36:11;2.50;1.50;1.50
73146;PMS7003;61345;48.922;2.244;2022-07-17T07:38:36;2.25;2.25;1.75
73146;PMS7003;61345;48.922;2.244;2022-07-17T07:41:02;1.50;1.50;1.50
73146;PMS7003;61345;48.922;2.244;2022-07-17T07:43:28;3.50;2.25;1.50
73146;PMS7003;61345;48.922;2.244;2022-07-17T07:45:53;1.50;1.50;1.50
73146;PMS7003;61345;48.922;2.244;2022-07-17T07:48:19;2.75;2.75;1.75
73146;PMS7003;61345;48.922;2.244;2022-07-17T07:50:44;2.75;2.75;1.75
73146;PMS7003;61345;48.922;2.244;2022-07-17T07:53:09;3.25;2.00;2.00
73146;PMS7003;61345;48.922;2.244;2022-07-17T07:55:35;1.50;1.50;1.50
73146;PMS7003;61345;48.922;2.244;2022-07-17T07:58:07;2.50;2.00;2.00
73146;PMS7003;61345;48.922;2.244;2022-07-17T08:00:35;3.75;3.75;2.75
73146;PMS7003;61345;48.922;2.244;2022-07-17T08:03:01;2.50;2.50;2.25
73146;PMS7003;61345;48.922;2.244;2022-07-17T08:05:26;3.50;1.00;1.00
73146;PMS7003;61345;48.922;2.244;2022-07-17T08:07:52;2.75;2.75;1.75
73146;PMS7003;61345;48.922;2.244;2022-07-17T08:10:17;1.25;1.25;1.00
73146;PMS7003;61345;48.922;2.244;2022-07-17T08:12:42;2.00;2.00;2.00
73146;PMS7003;61345;48.922;2.244;2022-07-17T08:15:08;4.00;2.00;2.00
73146;PMS7003;61345;48.922;2.244;2022-07-17T08:17:34;2.00;2.00;2.00
73146;PMS7003;61345;48.922;2.244;2022-07-17T08:19:59;2.00;2.00;1.75
73146;PMS7003;61345;48.922;2.244;2022-07-17T08:22:25;4.50;3.00;2.00
73146;PMS7003;61345;48.922;2.244;2022-07-17T08:24:50;4.00;2.50;2.00
73146;PMS7003;61345;48.922;2.244;2022-07-17T08:27:15;3.25;2.00;1.50
73146;PMS7003;61345;48.922;2.244;2022-07-17T08:29:41;1.50;1.50;1.50
73146;PMS7003;61345;48.922;2.244;2022-07-17T08:32:07;2.50;2.50;2.00
73146;PMS7003;61345;48.922;2.244;2022-07-17T08:34:32;2.00;2.00;2.00
73146;PMS7003;61345;48.922;2.244;2022-07-17T08:36:57;2.00;2.00;2.00
73146;PMS7003;61345;48.922;2.244;2022-07-17T08:39:23;2.00;2.00;1.50
73146;PMS7003;61345;48.922;2.244;2022-07-17T08:41:48;1.25;1.25;1.25
73146;PMS7003;61345;48.922;2.244;2022-07-17T08:44:14;4.00;3.00;2.75
73146;PMS7003;61345;48.922;2.244;2022-07-17T08:46:39;1.00;1.00;1.00
73146;PMS7003;61345;48.922;2.244;2022-07-17T08:49:05;3.75;3.00;2.25
73146;PMS7003;61345;48.922;2.244;2022-07-17T08:51:32;2.50;1.00;1.00
73146;PMS7003;61345;48.922;2.244;2022-07-17T08:53:57;2.00;2.00;1.75
73146;PMS7003;61345;48.922;2.244;2022-07-17T08:56:24;2.75;1.75;1.00
73146;PMS7003;61345;48.922;2.244;2022-07-17T08:58:49;2.00;2.00;2.00
73146;PMS7003;61345;48.922;2.244;2022-07-17T09:01:16;2.50;1.25;1.00
73146;PMS7003;61345;48.922;2.244;2022-07-17T09:03:52;4.25;3.00;3.00
73146;PMS7003;61345;48.922;2.244;2022-07-17T09:06:25;3.00;3.00;2.00
73146;PMS7003;61345;48.922;2.244;2022-07-17T09:09:07;1.50;1.00;1.00
73146;PMS7003;61345;48.922;2.244;2022-07-17T09:11:42;3.00;1.75;1.25
73146;PMS7003;61345;48.922;2.244;2022-07-17T09:14:09;2.25;2.25;2.00
73146;PMS7003;61345;48.922;2.244;2022-07-17T09:16:35;2.00;2.00;1.75
73146;PMS7003;61345;48.922;2.244;2022-07-17T09:19:01;2.00;2.00;2.00
73146;PMS7003;61345;48.922;2.244;2022-07-17T09:21:28;2.00;2.00;2.00
73146;PMS7003;61345;48.922;2.244;2022-07-17T09:24:12;1.25;1.25;1.00
73146;PMS7003;61345;48.922;2.244;2022-07-17T09:26:43;2.00;2.00;2.00
73146;PMS7003;61345;48.922;2.244;2022-07-17T09:29:09;3.00;3.00;2.50
73146;PMS7003;61345;48.922;2.244;2022-07-17T09:31:37;2.00;2.00;2.00
73146;PMS7003;61345;48.922;2.244;2022-07-17T09:34:02;3.75;2.25;1.75
73146;PMS7003;61345;48.922;2.244;2022-07-17T09:36:28;2.00;1.50;1.00
73146;PMS7003;61345;48.922;2.244;2022-07-17T09:38:54;1.25;1.25;1.00
73146;PMS7003;61345;48.922;2.244;2022-07-17T09:41:21;1.50;1.50;1.50
73146;PMS7003;61345;48.922;2.244;2022-07-17T09:43:51;1.25;1.25;1.25
73146;PMS7003;61345;48.922;2.244;2022-07-17T09:46:25;2.00;2.00;1.50
73146;PMS7003;61345;48.922;2.244;2022-07-17T09:48:53;2.00;2.00;1.50
73146;PMS7003;61345;48.922;2.244;2022-07-17T09:51:26;1.50;1.00;1.00
73146;PMS7003;61345;48.922;2.244;2022-07-17T09:53:56;0.25;0.25;0.25
73146;PMS7003;61345;48.922;2.244;2022-07-17T09:56:24;1.25;1.00;0.50
73146;PMS7003;61345;48.922;2.244;2022-07-17T09:58:51;2.25;2.25;2.00
73146;PMS7003;61345;48.922;2.244;2022-07-17T10:01:18;3.00;3.00;2.25
73146;PMS7003;61345;48.922;2.244;2022-07-17T10:03:44;3.25;1.25;1.00
73146;PMS7003;61345;48.922;2.244;2022-07-17T10:06:10;3.00;1.75;1.50
73146;PMS7003;61345;48.922;2.244;2022-07-17T10:08:36;1.50;0.50;0.25
73146;PMS7003;61345;48.922;2.244;2022-07-17T10:11:03;2.25;1.00;1.00
73146;PMS7003;61345;48.922;2.244;2022-07-17T10:13:30;2.00;2.00;2.00
73146;PMS7003;61345;48.922;2.244;2022-07-17T10:15:56;1.75;1.75;1.25
73146;PMS7003;61345;48.922;2.244;2022-07-17T10:18:32;3.50;2.00;2.00
73146;PMS7003;61345;48.922;2.244;2022-07-17T10:21:06;2.25;1.25;0.25
73146;PMS7003;61345;48.922;2.244;2022-07-17T10:23:34;3.00;2.00;2.00
73146;PMS7003;61345;48.922;2.244;2022-07-17T10:26:00;2.00;2.00;2.00
73146;PMS7003;61345;48.922;2.244;2022-07-17T10:28:37;2.00;2.00;1.00
73146;PMS7003;61345;48.922;2.244;2022-07-17T10:31:28;1.25;1.25;1.00
73146;PMS7003;61345;48.922;2.244;2022-07-17T10:33:58;0.75;0.75;0.25
73146;PMS7003;61345;48.922;2.244;2022-07-17T10:36:41;0.00;0.00;0.00
73146;PMS7003;61345;48.922;2.244;2022-07-17T10:39:11;1.00;1.00;1.00
73146;PMS7003;61345;48.922;2.244;2022-07-17T10:41:41;1.50;1.25;1.00
73146;PMS7003;61345;48.922;2.244;2022-07-17T10:44:07;0.00;0.00;0.00
73146;PMS7003;61345;48.922;2.244;2022-07-17T10:46:33;1.00;1.00;1.00
73146;PMS7003;61345;48.922;2.244;2022-07-17T10:49:00;2.00;1.25;1.25
73146;PMS7003;61345;48.922;2.244;2022-07-17T10:51:28;2.25;1.25;1.25
73146;PMS7003;61345;48.922;2.244;2022-07-17T10:53:57;0.25;0.25;0.00
73146;PMS7003;61345;48.922;2.244;2022-07-17T10:56:26;2.00;1.50;1.25
73146;PMS7003;61345;48.922;2.244;2022-07-17T10:58:52;1.00;1.00;0.50
73146;PMS7003;61345;48.922;2.244;2022-07-17T11:01:19;1.25;1.00;0.00
73146;PMS7003;61345;48.922;2.244;2022-07-17T11:06:15;1.00;1.00;1.00
73146;PMS7003;61345;48.922;2.244;2022-07-17T11:08:42;2.00;2.00;2.00
73146;PMS7003;61345;48.922;2.244;2022-07-17T11:11:18;2.00;0.00;0.00
73146;PMS7003;61345;48.922;2.244;2022-07-17T11:13:45;0.75;0.75;0.50
73146;PMS7003;61345;48.922;2.244;2022-07-17T11:16:10;2.00;1.00;1.00
73146;PMS7003;61345;48.922;2.244;2022-07-17T11:18:45;0.75;0.75;0.75
73146;PMS7003;61345;48.922;2.244;2022-07-17T11:21:12;2.50;1.00;1.00
73146;PMS7003;61345;48.922;2.244;2022-07-17T11:23:40;1.75;1.00;1.00
73146;PMS7003;61345;48.922;2.244;2022-07-17T11:26:19;3.00;2.00;1.75
73146;PMS7003;61345;48.922;2.244;2022-07-17T11:28:48;0.00;0.00;0.00
73146;PMS7003;61345;48.922;2.244;2022-07-17T11:31:24;6.00;5.50;4.25
73146;PMS7003;61345;48.922;2.244;2022-07-17T11:33:54;2.00;1.00;1.00
73146;PMS7003;61345;48.922;2.244;2022-07-17T11:38:59;2.00;2.00;2.00
73146;PMS7003;61345;48.922;2.244;2022-07-17T11:44:08;1.00;1.00;0.75
73146;PMS7003;61345;48.922;2.244;2022-07-17T11:46:35;0.75;0.75;0.50
73146;PMS7003;61345;48.922;2.244;2022-07-17T11:49:01;2.00;1.25;1.00
73146;PMS7003;61345;48.922;2.244;2022-07-17T11:51:34;3.00;1.25;1.00
73146;PMS7003;61345;48.922;2.244;2022-07-17T11:54:04;1.75;1.00;0.75
73146;PMS7003;61345;48.922;2.244;2022-07-17T11:56:30;0.75;0.75;0.75
73146;PMS7003;61345;48.922;2.244;2022-07-17T11:58:56;2.00;1.00;1.00
73146;PMS7003;61345;48.922;2.244;2022-07-17T12:01:21;1.00;0.50;0.50
73146;PMS7003;61345;48.922;2.244;2022-07-17T12:03:56;1.00;1.00;1.00
73146;PMS7003;61345;48.922;2.244;2022-07-17T12:06:25;1.00;1.00;1.00
73146;PMS7003;61345;48.922;2.244;2022-07-17T12:08:52;5.00;1.00;1.00
73146;PMS7003;61345;48.922;2.244;2022-07-17T12:11:18;1.50;0.25;0.25
73146;PMS7003;61345;48.922;2.244;2022-07-17T12:13:44;1.00;1.00;0.50
73146;PMS7003;61345;48.922;2.244;2022-07-17T12:16:22;1.25;1.25;1.00
73146;PMS7003;61345;48.922;2.244;2022-07-17T12:18:54;1.00;0.75;0.75
73146;PMS7003;61345;48.922;2.244;2022-07-17T12:21:25;1.75;1.50;1.25
73146;PMS7003;61345;48.922;2.244;2022-07-17T12:26:46;1.00;1.00;1.00
73146;PMS7003;61345;48.922;2.244;2022-07-17T12:29:11;0.75;0.75;0.75
73146;PMS7003;61345;48.922;2.244;2022-07-17T12:31:36;2.00;0.00;0.00
73146;PMS7003;61345;48.922;2.244;2022-07-17T12:34:02;1.00;1.00;0.50
73146;PMS7003;61345;48.922;2.244;2022-07-17T12:36:27;0.75;0.75;0.75
73146;PMS7003;61345;48.922;2.244;2022-07-17T12:38:52;1.00;0.25;0.25
73146;PMS7003;61345;48.922;2.244;2022-07-17T12:41:18;0.75;0.75;0.50
73146;PMS7003;61345;48.922;2.244;2022-07-17T12:43:44;2.00;1.00;0.50
73146;PMS7003;61345;48.922;2.244;2022-07-17T12:46:09;3.25;0.25;0.00
73146;PMS7003;61345;48.922;2.244;2022-07-17T12:48:35;0.25;0.25;0.25
73146;PMS7003;61345;48.922;2.244;2022-07-17T12:51:03;2.00;1.00;0.00
73146;PMS7003;61345;48.922;2.244;2022-07-17T12:53:29;1.00;0.50;0.25
73146;PMS7003;61345;48.922;2.244;2022-07-17T12:55:54;0.50;0.25;0.00
73146;PMS7003;61345;48.922;2.244;2022-07-17T12:58:20;1.50;1.50;1.00
73146;PMS7003;61345;48.922;2.244;2022-07-17T13:00:45;1.00;1.00;1.00
73146;PMS7003;61345;48.922;2.244;2022-07-17T13:03:10;1.00;1.00;1.00
73146;PMS7003;61345;48.922;2.244;2022-07-17T13:05:36;1.00;1.00;0.25
73146;PMS7003;61345;48.922;2.244;2022-07-17T13:08:01;1.00;0.75;0.75
73146;PMS7003;61345;48.922;2.244;2022-07-17T13:10:26;0.00;0.00;0.00
73146;PMS7003;61345;48.922;2.244;2022-07-17T13:12:52;2.00;1.00;1.00
73146;PMS7003;61345;48.922;2.244;2022-07-17T13:15:17;0.25;0.25;0.00
73146;PMS7003;61345;48.922;2.244;2022-07-17T13:17:43;0.75;0.75;0.75
73146;PMS7003;61345;48.922;2.244;2022-07-17T13:20:09;1.25;1.00;0.25
73146;PMS7003;61345;48.922;2.244;2022-07-17T13:22:35;0.00;0.00;0.00
73146;PMS7003;61345;48.922;2.244;2022-07-17T13:25:00;0.00;0.00;0.00
73146;PMS7003;61345;48.922;2.244;2022-07-17T13:27:25;1.50;1.50;1.00
73146;PMS7003;61345;48.922;2.244;2022-07-17T13:29:51;1.75;0.75;0.00
73146;PMS7003;61345;48.922;2.244;2022-07-17T13:32:16;0.25;0.25;0.25
73146;PMS7003;61345;48.922;2.244;2022-07-17T13:34:41;1.50;1.50;1.00
73146;PMS7003;61345;48.922;2.244;2022-07-17T13:37:07;1.50;0.00;0.00
73146;PMS7003;61345;48.922;2.244;2022-07-17T13:39:33;0.75;0.75;0.75
73146;PMS7003;61345;48.922;2.244;2022-07-17T13:41:59;0.00;0.00;0.00
73146;PMS7003;61345;48.922;2.244;2022-07-17T13:44:24;0.25;0.25;0.00
73146;PMS7003;61345;48.922;2.244;2022-07-17T13:46:50;0.00;0.00;0.00
73146;PMS7003;61345;48.922;2.244;2022-07-17T13:49:15;2.00;0.25;0.25
73146;PMS7003;61345;48.922;2.244;2022-07-17T13:51:40;0.75;0.75;0.50
73146;PMS7003;61345;48.922;2.244;2022-07-17T13:54:06;2.00;0.00;0.00
73146;PMS7003;61345;48.922;2.244;2022-07-17T13:56:32;0.75;0.50;0.00
73146;PMS7003;61345;48.922;2.244;2022-07-17T13:59:00;0.00;0.00;0.00
73146;PMS7003;61345;48.922;2.244;2022-07-17T14:01:26;0.00;0.00;0.00
73146;PMS7003;61345;48.922;2.244;2022-07-17T14:03:52;0.00;0.00;0.00
73146;PMS7003;61345;48.922;2.244;2022-07-17T14:06:17;1.00;1.00;1.00
73146;PMS7003;61345;48.922;2.244;2022-07-17T14:08:43;0.00;0.00;0.00
73146;PMS7003;61345;48.922;2.244;2022-07-17T14:11:09;0.75;0.75;0.50
73146;PMS7003;61345;48.922;2.244;2022-07-17T14:13:36;0.00;0.00;0.00
73146;PMS7003;61345;48.922;2.244;2022-07-17T14:16:01;1.50;1.50;1.00
73146;PMS7003;61345;48.922;2.244;2022-07-17T14:18:27;1.25;1.25;1.00
73146;PMS7003;61345;48.922;2.244;2022-07-17T14:20:52;0.00;0.00;0.00
73146;PMS7003;61345;48.922;2.244;2022-07-17T14:23:17;1.00;1.00;0.50
73146;PMS7003;61345;48.922;2.244;2022-07-17T14:25:43;2.00;0.25;0.00
73146;PMS7003;61345;48.922;2.244;2022-07-17T14:28:08;0.00;0.00;0.00